createdAt,value
2019-04-28T00:00:57.418Z,5.30
2019-04-28T00:06:06.427Z,6.22
2019-04-28T00:11:15.378Z,4.06
2019-04-28T00:16:24.483Z,2.49
2019-04-28T00:21:33.404Z,2.00
2019-04-28T00:26:42.374Z,1.02
2019-04-28T00:31:51.404Z,2.17
2019-04-28T00:37:01.284Z,1.71
2019-04-28T00:42:08.781Z,1.54
2019-04-28T00:47:17.910Z,0.95
2019-04-28T00:52:26.842Z,2.02
2019-04-28T00:57:35.778Z,0.71
2019-04-28T01:02:44.723Z,3.04
2019-04-28T01:07:53.690Z,1.39
2019-04-28T01:13:02.642Z,2.27
2019-04-28T01:18:11.605Z,1.38
2019-04-28T01:23:20.528Z,1.72
2019-04-28T01:28:29.797Z,4.15
2019-04-28T01:33:40.525Z,4.36
2019-04-28T01:38:46.930Z,1.02
2019-04-28T01:43:56.418Z,1.74
2019-04-28T01:49:05.348Z,3.32
2019-04-28T01:54:14.358Z,3.64
2019-04-28T01:59:23.295Z,5.29
2019-04-28T02:04:32.633Z,3.21
2019-04-28T02:09:41.234Z,3.01
2019-04-28T02:14:52.049Z,3.10
2019-04-28T02:20:00.429Z,4.90
2019-04-28T02:25:07.192Z,2.45
2019-04-28T02:30:16.155Z,4.57
2019-04-28T02:35:25.080Z,5.90
2019-04-28T02:40:34.127Z,3.91
2019-04-28T02:45:43.068Z,4.04
2019-04-28T02:50:51.032Z,4.30
2019-04-28T02:56:00.888Z,3.40
2019-04-28T03:01:15.300Z,3.86
2019-04-28T03:06:15.959Z,2.80
2019-04-28T03:11:24.906Z,3.82
2019-04-28T03:16:33.831Z,2.49
2019-04-28T03:21:42.811Z,5.34
2019-04-28T03:26:51.739Z,3.73
2019-04-28T03:32:18.370Z,6.13
2019-04-28T03:37:11.238Z,6.36
2019-04-28T03:42:17.732Z,4.65
2019-04-28T03:47:26.651Z,4.29
2019-04-28T03:52:35.691Z,7.75
2019-04-28T03:57:44.621Z,8.14
2019-04-28T04:02:53.694Z,4.49
2019-04-28T04:08:02.603Z,8.51
2019-04-28T04:13:11.572Z,3.64
2019-04-28T04:18:21.171Z,3.15
2019-04-28T04:23:30.844Z,3.15
2019-04-28T04:28:37.438Z,2.35
2019-04-28T04:33:46.367Z,2.41
2019-04-28T04:38:55.292Z,3.23
2019-04-28T04:44:04.230Z,3.27
2019-04-28T04:49:13.234Z,3.13
2019-04-28T04:54:22.161Z,3.09
2019-04-28T04:59:31.162Z,3.74
2019-04-28T05:04:40.106Z,7.13
2019-04-28T05:09:49.578Z,4.38
2019-04-28T05:14:57.580Z,4.24
2019-04-28T05:20:06.578Z,7.05
2019-04-28T05:25:15.524Z,5.80
2019-04-28T05:30:24.455Z,6.29
2019-04-28T05:35:35.697Z,5.11
2019-04-28T05:40:41.891Z,3.05
2019-04-28T05:45:50.837Z,9.23
2019-04-28T05:50:59.920Z,6.10
2019-04-28T05:56:10.289Z,4.81
2019-04-28T06:01:16.726Z,7.47
2019-04-28T06:06:25.682Z,5.07
2019-04-28T06:11:34.619Z,7.60
2019-04-28T06:16:43.553Z,4.20
2019-04-28T06:21:52.498Z,9.11
2019-04-28T06:27:01.414Z,4.17
2019-04-28T06:32:10.370Z,4.37
2019-04-28T06:37:19.274Z,7.26
2019-04-28T06:42:28.230Z,4.56
2019-04-28T06:47:37.154Z,6.89
2019-04-28T06:52:46.139Z,8.10
2019-04-28T06:57:55.064Z,6.96
2019-04-28T07:03:04.014Z,4.45
2019-04-28T07:08:13.971Z,4.79
2019-04-28T07:13:21.410Z,4.66
2019-04-28T07:18:30.354Z,4.83
2019-04-28T07:23:39.295Z,7.39
2019-04-28T07:28:48.231Z,4.86
2019-04-28T07:33:57.218Z,5.04
2019-04-28T07:39:06.187Z,5.45
2019-04-28T07:44:15.155Z,4.62
2019-04-28T07:49:24.074Z,5.79
2019-04-28T07:54:33.092Z,6.61
2019-04-28T07:59:42.044Z,4.97
2019-04-28T08:04:51.026Z,6.26
2019-04-28T08:10:00.023Z,5.49
2019-04-28T08:15:08.983Z,5.53
2019-04-28T08:20:17.934Z,6.24
2019-04-28T08:25:26.903Z,7.54
2019-04-28T08:30:35.847Z,10.23
2019-04-28T08:35:44.831Z,8.37
2019-04-28T08:40:53.794Z,6.68
2019-04-28T08:46:02.725Z,7.83
2019-04-28T08:51:11.671Z,5.84
2019-04-28T08:56:20.674Z,5.36
2019-04-28T09:01:29.602Z,6.03
2019-04-28T09:06:38.899Z,4.21
2019-04-28T09:11:47.800Z,4.90
2019-04-28T09:16:56.814Z,5.07
2019-04-28T09:22:05.788Z,7.99
2019-04-28T09:27:15.987Z,6.66
2019-04-28T09:32:14.910Z,6.81
2019-04-28T09:37:23.903Z,8.63
2019-04-28T09:42:32.827Z,7.48
2019-04-28T09:47:41.782Z,7.05
2019-04-28T09:52:50.720Z,6.91
2019-04-28T09:57:59.663Z,6.26
2019-04-28T10:03:08.662Z,6.53
2019-04-28T10:08:17.628Z,7.76
2019-04-28T10:13:26.695Z,6.77
2019-04-28T10:18:35.668Z,6.02
2019-04-28T10:23:44.696Z,6.48
2019-04-28T10:28:53.743Z,7.26
2019-04-28T10:34:02.947Z,6.89
2019-04-28T10:39:11.943Z,8.28
2019-04-28T10:44:20.895Z,8.21
2019-04-28T10:49:29.871Z,6.72
2019-04-28T10:54:38.855Z,9.73
2019-04-28T10:59:47.869Z,9.39
2019-04-28T11:05:07.769Z,9.14
2019-04-28T11:10:06.051Z,8.56
2019-04-28T11:15:15.026Z,8.14
2019-04-28T11:20:25.236Z,11.05
2019-04-28T11:25:32.499Z,9.56
2019-04-28T11:30:41.523Z,12.79
2019-04-28T11:35:50.463Z,7.63
2019-04-28T11:40:59.424Z,6.96
2019-04-28T11:46:08.440Z,9.02
2019-04-28T11:51:17.447Z,6.67
2019-04-28T11:56:26.532Z,5.93
2019-04-28T12:01:35.483Z,6.13
2019-04-28T12:06:44.535Z,6.35
2019-04-28T12:11:53.488Z,5.95
2019-04-28T12:17:02.630Z,5.99
2019-04-28T12:22:11.571Z,5.15
2019-04-28T12:27:20.578Z,4.21
2019-04-28T12:32:35.427Z,7.04
2019-04-28T12:37:34.386Z,4.80
2019-04-28T12:42:55.544Z,3.11
2019-04-28T12:47:44.502Z,4.42
2019-04-28T12:52:53.616Z,6.62
2019-04-28T12:58:01.181Z,4.92
2019-04-28T13:03:10.204Z,3.61
2019-04-28T13:08:19.302Z,4.64
2019-04-28T13:13:28.255Z,5.80
2019-04-28T13:18:37.178Z,6.57
2019-04-28T13:23:46.279Z,3.54
2019-04-28T13:28:55.225Z,4.15
2019-04-28T13:34:04.224Z,5.85
2019-04-28T13:39:13.172Z,5.78
2019-04-28T13:44:22.208Z,6.52
2019-04-28T13:49:31.156Z,4.47
2019-04-28T13:54:40.152Z,5.85
2019-04-28T13:59:49.078Z,5.98
2019-04-28T14:04:58.097Z,7.63
2019-04-28T14:10:07.063Z,8.11
2019-04-28T14:15:16.016Z,5.05
2019-04-28T14:20:24.946Z,7.48
2019-04-28T14:25:33.920Z,6.06
2019-04-28T14:30:42.933Z,5.48
2019-04-28T14:35:51.851Z,9.09
2019-04-28T14:41:00.789Z,6.09
2019-04-28T14:46:09.783Z,5.45
2019-04-28T14:51:18.722Z,5.32
2019-04-28T14:56:27.731Z,8.80
2019-04-28T15:01:37.448Z,5.77
2019-04-28T15:06:55.155Z,9.95
2019-04-28T15:11:53.652Z,8.41
2019-04-28T15:17:02.748Z,5.48
2019-04-28T15:22:11.754Z,6.32
2019-04-28T15:27:20.864Z,5.71
2019-04-28T15:32:29.762Z,12.22
2019-04-28T15:37:38.743Z,8.86
2019-04-28T15:42:47.699Z,5.45
2019-04-28T15:47:56.641Z,5.34
2019-04-28T15:53:05.655Z,4.34
2019-04-28T15:58:14.595Z,4.52
2019-04-28T16:03:23.551Z,7.64
2019-04-28T16:08:32.498Z,4.71
2019-04-28T16:13:41.526Z,6.33
2019-04-28T16:18:50.506Z,4.78
2019-04-28T16:23:59.491Z,5.31
2019-04-28T16:29:08.438Z,5.85
2019-04-28T16:34:17.463Z,5.14
2019-04-28T16:39:26.467Z,5.47
2019-04-28T16:44:35.491Z,5.20
2019-04-28T16:49:44.433Z,9.82
2019-04-28T16:54:53.417Z,5.86
2019-04-28T17:00:02.343Z,4.78
2019-04-28T17:05:11.359Z,4.20
2019-04-28T17:10:20.303Z,5.02
2019-04-28T17:15:30.392Z,4.04
2019-04-28T17:20:37.755Z,5.08
2019-04-28T17:25:46.742Z,4.38
2019-04-28T17:30:55.662Z,6.59
2019-04-28T17:36:04.667Z,4.40
2019-04-28T17:41:13.655Z,4.38
2019-04-28T17:46:22.691Z,3.94
2019-04-28T17:51:31.676Z,4.90
2019-04-28T17:56:40.600Z,5.31
2019-04-28T18:01:50.726Z,5.88
2019-04-28T18:06:49.713Z,4.38
2019-04-28T18:11:58.743Z,6.07
2019-04-28T18:17:07.762Z,4.80
2019-04-28T18:22:16.819Z,4.72
2019-04-28T18:27:25.760Z,4.44
2019-04-28T18:32:34.827Z,4.83
2019-04-28T18:37:43.767Z,3.92
2019-04-28T18:42:52.734Z,5.98
2019-04-28T18:48:01.671Z,7.09
2019-04-28T18:53:12.742Z,7.51
2019-04-28T18:58:13.107Z,8.03
2019-04-28T19:03:20.374Z,9.66
2019-04-28T19:08:29.389Z,4.02
2019-04-28T19:13:38.327Z,4.04
2019-04-28T19:18:47.565Z,2.78
2019-04-28T19:23:56.543Z,1.64
2019-04-28T19:29:05.507Z,1.91
2019-04-28T19:34:14.434Z,1.79
2019-04-28T19:39:23.423Z,2.30
2019-04-28T19:44:32.406Z,2.11
2019-04-28T19:49:41.395Z,4.31
2019-04-28T19:54:50.351Z,4.72
2019-04-28T19:59:59.278Z,4.35
2019-04-28T20:05:08.222Z,1.59
2019-04-28T20:10:17.162Z,3.37
2019-04-28T20:15:26.130Z,3.81
2019-04-28T20:20:35.072Z,3.11
2019-04-28T20:25:43.994Z,2.08
2019-04-28T20:30:52.938Z,4.57
2019-04-28T20:36:01.898Z,2.24
2019-04-28T20:41:10.834Z,1.23
2019-04-28T20:46:19.823Z,2.00
2019-04-28T20:51:28.906Z,1.54
2019-04-28T20:56:37.878Z,2.14
2019-04-28T21:01:46.814Z,3.82
2019-04-28T21:06:55.763Z,3.53
2019-04-28T21:12:04.734Z,1.46
2019-04-28T21:17:13.678Z,3.47
2019-04-28T21:22:22.612Z,2.56
2019-04-28T21:27:31.572Z,4.92
2019-04-28T21:32:40.494Z,2.29
2019-04-28T21:37:49.486Z,2.91
2019-04-28T21:43:04.766Z,4.54
2019-04-28T21:48:03.739Z,0.98
2019-04-28T21:53:12.683Z,1.39
2019-04-28T21:58:32.535Z,1.60
2019-04-28T22:03:30.121Z,2.52
2019-04-28T22:08:39.087Z,2.92
2019-04-28T22:13:48.210Z,1.07
2019-04-28T22:18:57.174Z,1.88
2019-04-28T22:24:06.223Z,3.14
2019-04-28T22:29:15.142Z,3.03
2019-04-28T22:34:24.134Z,6.81
2019-04-28T22:39:33.102Z,1.22
2019-04-28T22:44:41.461Z,1.52
2019-04-28T22:49:50.318Z,1.76
2019-04-28T22:54:59.327Z,2.73
2019-04-28T23:00:08.235Z,2.25
2019-04-28T23:05:17.312Z,2.65
2019-04-28T23:10:26.239Z,1.86
2019-04-28T23:15:35.170Z,1.49
2019-04-28T23:20:44.110Z,1.27
2019-04-28T23:25:53.038Z,1.79
2019-04-28T23:31:02.058Z,2.30
2019-04-28T23:36:11.007Z,3.32
2019-04-28T23:41:20.098Z,2.50
2019-04-28T23:46:29.079Z,3.12
2019-04-28T23:51:38.030Z,2.98
2019-04-28T23:56:47.015Z,2.81
